Terminal Aerodrome Forecast
Issued by NWS

Home | Current Version | Previous Version | Text Only | Print | Product List | Glossary On
Versions: 1 2 3 4 5 6 7 8 9 10 11 12 13 14 15 16 17 18
303
FTUS45 KRIW 190523
TAFCPR
TAF
KCPR 190523Z 1906/2006 03015KT 1SM -SN SCT008 OVC015
      TEMPO 1906/1910 3/4SM -SN BKN008
     FM191300 04011KT 1SM -SN SCT008 OVC014
     FM192300 02009KT 2SM -SN OVC018
     FM200400 36007KT P6SM -SN SCT025 OVC040=

USA.gov is the U.S. government's official web portal to all federal, state and local government web resources and services.